Time;durP1;ratioP1;P1;durP2;ratioP2;P2;SDS_P1;SDS_P2;PMS_P1;PMS_P2;Temp;Humidity;BMP_temperature;BMP_pressure;BME280_temperature;BME280_humidity;BME280_pressure;Samples;Min_cycle;Max_cycle;Signal;HPM_P1;HPM_P2
2023/02/02 00:01:15;;;;;;;11.33;6.67;;;7.60;99.90;;;;;;4980909;28;20465;-83
2023/02/02 00:03:41;;;;;;;14.63;9.10;;;7.60;99.90;;;;;;4980735;28;20527;-84
2023/02/02 00:06:08;;;;;;;14.33;8.60;;;7.50;99.90;;;;;;4992169;28;20913;-84
2023/02/02 00:08:37;;;;;;;20.43;14.43;;;7.40;99.90;;;;;;5000506;28;20480;-84
2023/02/02 00:11:04;;;;;;;28.63;8.20;;;7.50;99.90;;;;;;4999365;28;20537;-83
2023/02/02 00:13:30;;;;;;;17.43;9.00;;;7.30;99.90;;;;;;5001076;28;20461;-83
2023/02/02 00:15:59;;;;;;;18.60;14.90;;;7.50;99.90;;;;;;4991374;28;20478;-83
2023/02/02 00:18:25;;;;;;;25.20;19.77;;;7.40;99.90;;;;;;4983924;28;20474;-83
2023/02/02 00:20:52;;;;;;;13.77;12.40;;;7.50;99.90;;;;;;4991099;28;20454;-83
2023/02/02 00:23:19;;;;;;;24.40;16.93;;;7.50;99.90;;;;;;4998952;28;20530;-83
2023/02/02 00:25:50;;;;;;;17.70;12.40;;;7.60;99.90;;;;;;4984705;28;21035;-83
2023/02/02 00:28:17;;;;;;;18.17;10.27;;;7.70;99.90;;;;;;4983926;28;20475;-83
2023/02/02 00:30:44;;;;;;;13.10;7.73;;;7.60;99.90;;;;;;4983820;28;20455;-83
2023/02/02 00:33:12;;;;;;;9.57;7.00;;;7.60;99.90;;;;;;4983274;28;21008;-83
2023/02/02 00:35:42;;;;;;;29.13;11.40;;;7.60;99.90;;;;;;4984512;28;20465;-83
2023/02/02 00:38:09;;;;;;;14.60;13.30;;;7.70;99.90;;;;;;4985109;28;20482;-84
2023/02/02 00:40:36;;;;;;;15.00;7.80;;;7.70;99.90;;;;;;5003615;28;20469;-83
2023/02/02 00:43:02;;;;;;;12.23;6.83;;;7.70;99.90;;;;;;5002581;28;20458;-83
2023/02/02 00:45:29;;;;;;;19.00;11.87;;;7.70;99.90;;;;;;4984422;28;20526;-83
2023/02/02 00:47:56;;;;;;;12.93;7.70;;;7.70;99.90;;;;;;4984039;28;20478;-83
2023/02/02 00:50:24;;;;;;;14.90;13.50;;;7.70;99.90;;;;;;5002104;28;20497;-83
2023/02/02 00:52:51;;;;;;;14.33;9.70;;;7.60;99.90;;;;;;5003308;28;20454;-83
2023/02/02 00:55:19;;;;;;;12.30;8.50;;;7.70;99.90;;;;;;4985954;28;20478;-84
2023/02/02 00:57:45;;;;;;;19.50;8.83;;;7.60;99.90;;;;;;4983542;28;20554;-83
2023/02/02 01:00:15;;;;;;;16.50;10.17;;;7.80;99.90;;;;;;4983834;28;20490;-84
2023/02/02 01:02:42;;;;;;;21.73;9.40;;;7.70;99.90;;;;;;4983184;28;20451;-84
2023/02/02 01:05:09;;;;;;;23.30;10.37;;;7.70;99.90;;;;;;4998597;28;20458;-84
2023/02/02 01:07:37;;;;;;;19.07;10.43;;;7.70;99.90;;;;;;5002071;28;21007;-84
2023/02/02 01:10:05;;;;;;;22.50;9.83;;;7.80;99.90;;;;;;5002384;28;20457;-84
2023/02/02 01:12:32;;;;;;;15.47;11.47;;;7.70;99.90;;;;;;5002603;28;20446;-84
2023/02/02 01:14:59;;;;;;;20.90;13.40;;;7.70;99.90;;;;;;4983372;28;20554;-84
2023/02/02 01:17:26;;;;;;;22.17;13.67;;;7.80;99.90;;;;;;4983498;28;20573;-84
2023/02/02 01:19:53;;;;;;;27.80;24.43;;;7.80;99.90;;;;;;5000452;28;20488;-85
2023/02/02 01:22:20;;;;;;;50.13;47.43;;;7.70;99.90;;;;;;5002872;28;20470;-84
2023/02/02 01:24:48;;;;;;;50.57;47.80;;;7.60;99.90;;;;;;5002100;28;20461;-84
2023/02/02 01:27:15;;;;;;;56.10;52.63;;;7.50;99.90;;;;;;5002635;28;20537;-84
2023/02/02 01:29:42;;;;;;;97.83;93.93;;;7.40;99.90;;;;;;5002670;28;20496;-84
2023/02/02 01:32:09;;;;;;;53.43;50.50;;;7.30;99.90;;;;;;5002508;28;20526;-84
2023/02/02 01:34:40;;;;;;;58.03;54.33;;;7.30;99.90;;;;;;5002090;28;20874;-84
2023/02/02 01:37:07;;;;;;;60.03;57.00;;;7.30;99.90;;;;;;4998568;28;20566;-84
2023/02/02 01:39:34;;;;;;;117.50;111.90;;;7.30;99.90;;;;;;4982453;28;20459;-83
2023/02/02 01:42:02;;;;;;;178.27;171.10;;;7.20;99.90;;;;;;4983561;28;20463;-84
2023/02/02 01:45:14;;;;;;;216.67;208.73;;;7.10;99.90;;;;;;5000924;28;20454;-83
2023/02/02 01:47:47;;;;;;;281.27;270.57;;;7.10;99.90;;;;;;5000057;28;20466;-84
2023/02/02 01:50:17;;;;;;;192.73;184.77;;;7.20;99.90;;;;;;5001333;28;20466;-83
2023/02/02 01:52:48;;;;;;;174.63;168.33;;;7.20;99.90;;;;;;4993768;28;20455;-83
2023/02/02 01:55:17;;;;;;;359.70;347.33;;;7.20;99.90;;;;;;4981037;28;20467;-82
2023/02/02 01:57:50;;;;;;;301.30;290.70;;;7.10;99.90;;;;;;4987080;28;20854;-82
2023/02/02 02:00:23;;;;;;;281.90;270.93;;;7.20;99.90;;;;;;5000985;28;20846;-82
2023/02/02 02:02:52;;;;;;;222.63;214.57;;;7.20;99.90;;;;;;4994435;28;20474;-82
2023/02/02 02:05:28;;;;;;;184.30;177.47;;;7.20;99.90;;;;;;4980796;28;20462;-83
2023/02/02 02:08:02;;;;;;;242.17;234.23;;;7.10;99.90;;;;;;4994493;28;20476;-82
2023/02/02 02:10:28;;;;;;;391.20;377.27;;;7.00;99.90;;;;;;5001078;28;20469;-82
2023/02/02 02:12:58;;;;;;;318.63;307.60;;;7.00;99.90;;;;;;4984085;28;20457;-83
2023/02/02 02:18:22;;;;;;;389.80;375.90;;;7.10;99.90;;;;;;4997881;28;20512;-82
2023/02/02 02:27:49;;;;;;;401.53;386.93;;;7.20;99.90;;;;;;4992937;28;20994;-83
2023/02/02 02:30:48;;;;;;;424.17;408.77;;;7.20;99.90;;;;;;4980983;28;20459;-83
2023/02/02 02:33:23;;;;;;;396.33;381.37;;;7.30;99.90;;;;;;4984692;28;20454;-83
2023/02/02 02:35:58;;;;;;;286.93;276.73;;;7.30;99.90;;;;;;5000993;28;20454;-83
2023/02/02 02:38:33;;;;;;;299.10;287.70;;;7.30;99.90;;;;;;4998342;28;20481;-83
2023/02/02 02:41:04;;;;;;;259.03;250.13;;;7.40;99.90;;;;;;4999914;28;20450;-83
2023/02/02 02:43:37;;;;;;;255.57;246.77;;;7.30;99.90;;;;;;4982133;28;20498;-83
2023/02/02 02:46:05;;;;;;;276.53;265.93;;;7.40;99.90;;;;;;4981458;28;20442;-83
2023/02/02 02:48:33;;;;;;;238.67;230.20;;;7.30;99.90;;;;;;4997937;28;20476;-83
2023/02/02 02:51:08;;;;;;;276.00;266.13;;;7.40;99.90;;;;;;4999845;28;20454;-83
2023/02/02 02:53:37;;;;;;;216.87;207.83;;;7.30;99.90;;;;;;4981994;28;20451;-82
2023/02/02 02:56:16;;;;;;;211.13;203.30;;;7.40;99.90;;;;;;4980478;28;20451;-83
2023/02/02 02:58:49;;;;;;;253.77;244.90;;;7.40;99.90;;;;;;4998837;28;20844;-83
2023/02/02 03:01:21;;;;;;;261.80;252.00;;;7.40;99.90;;;;;;4999401;28;20461;-83
2023/02/02 03:04:05;;;;;;;225.00;216.17;;;7.30;99.90;;;;;;4981296;28;20822;-83
2023/02/02 03:06:41;;;;;;;291.17;280.53;;;7.40;99.90;;;;;;4989198;28;20465;-82
2023/02/02 03:09:10;;;;;;;255.27;246.87;;;7.30;99.90;;;;;;5000071;28;20480;-83
2023/02/02 03:11:37;;;;;;;333.50;321.00;;;7.30;99.90;;;;;;4989864;28;20455;-83
2023/02/02 03:14:08;;;;;;;349.17;335.07;;;7.30;99.90;;;;;;4980134;28;20483;-83
2023/02/02 03:16:35;;;;;;;338.13;325.73;;;7.30;99.90;;;;;;4988224;28;20508;-83
2023/02/02 03:19:04;;;;;;;316.60;305.30;;;7.30;99.90;;;;;;5000263;28;20474;-82
2023/02/02 03:21:31;;;;;;;362.43;348.87;;;7.30;99.90;;;;;;4992576;28;20946;-82
2023/02/02 03:23:58;;;;;;;358.40;345.23;;;7.30;99.90;;;;;;4981518;28;20485;-83
2023/02/02 03:26:25;;;;;;;367.50;352.23;;;7.30;99.90;;;;;;4987967;28;20537;-82
2023/02/02 03:28:53;;;;;;;314.50;303.50;;;7.30;99.90;;;;;;5001514;28;20474;-83
2023/02/02 03:31:20;;;;;;;292.13;280.97;;;7.30;99.90;;;;;;4997654;28;20462;-83
2023/02/02 03:33:47;;;;;;;283.20;273.17;;;7.40;99.90;;;;;;4983548;28;20825;-84
2023/02/02 03:36:15;;;;;;;283.93;272.47;;;7.30;99.90;;;;;;4997184;28;20457;-83
2023/02/02 03:38:41;;;;;;;336.73;324.07;;;7.40;99.90;;;;;;5003574;28;20489;-83
2023/02/02 03:41:08;;;;;;;279.03;269.53;;;7.30;99.90;;;;;;4991917;28;20459;-83
2023/02/02 03:43:35;;;;;;;280.17;270.50;;;7.30;99.90;;;;;;4984060;28;20447;-84
2023/02/02 03:46:04;;;;;;;293.17;283.17;;;7.30;99.90;;;;;;4994449;28;20962;-83
2023/02/02 03:48:34;;;;;;;382.83;369.57;;;7.30;99.90;;;;;;5002989;28;20993;-83
2023/02/02 03:51:01;;;;;;;454.10;436.73;;;7.20;99.90;;;;;;4995395;28;20450;-81
2023/02/02 03:53:29;;;;;;;299.30;288.77;;;7.20;99.90;;;;;;4986901;28;20480;-81
2023/02/02 03:55:55;;;;;;;485.23;465.77;;;7.10;99.90;;;;;;4988483;28;20455;-81
2023/02/02 03:58:22;;;;;;;433.10;415.97;;;7.00;99.90;;;;;;4987140;28;20486;-82
2023/02/02 04:00:49;;;;;;;412.13;397.13;;;7.10;99.90;;;;;;4997761;28;20465;-81
2023/02/02 04:03:16;;;;;;;458.13;438.43;;;7.00;99.90;;;;;;5001532;28;20977;-82
2023/02/02 04:05:42;;;;;;;431.57;415.20;;;7.00;99.90;;;;;;5003682;28;20840;-81
2023/02/02 04:08:09;;;;;;;494.37;473.17;;;7.00;99.90;;;;;;5004948;28;20465;-82
2023/02/02 04:10:41;;;;;;;481.87;462.80;;;7.10;99.90;;;;;;5006734;28;20454;-80
2023/02/02 04:13:07;;;;;;;453.53;435.73;;;7.00;99.90;;;;;;5004742;28;20465;-82
2023/02/02 04:15:34;;;;;;;360.93;347.47;;;7.20;99.90;;;;;;5004150;28;20836;-82
2023/02/02 04:18:01;;;;;;;427.33;410.63;;;7.20;99.90;;;;;;5005958;28;20509;-83
2023/02/02 04:20:28;;;;;;;372.30;358.60;;;7.20;99.90;;;;;;5007529;28;20450;-82
2023/02/02 04:22:55;;;;;;;392.03;376.87;;;7.20;99.90;;;;;;5006014;28;20462;-83
2023/02/02 04:25:21;;;;;;;401.70;385.93;;;7.20;99.90;;;;;;5006302;28;20458;-83
2023/02/02 04:27:49;;;;;;;361.37;348.10;;;7.20;99.90;;;;;;5006377;28;20473;-82
2023/02/02 04:30:18;;;;;;;371.30;358.07;;;7.30;99.90;;;;;;5005847;28;20465;-82
2023/02/02 04:32:45;;;;;;;374.80;360.63;;;7.20;99.90;;;;;;5004334;28;20832;-82
2023/02/02 04:35:12;;;;;;;367.17;353.97;;;7.20;99.90;;;;;;5011304;28;20461;-82
2023/02/02 04:37:39;;;;;;;365.43;352.13;;;7.20;99.90;;;;;;5005470;28;20492;-83
2023/02/02 04:40:06;;;;;;;431.87;414.40;;;7.20;99.90;;;;;;5006653;28;20454;-83
2023/02/02 04:42:33;;;;;;;431.33;414.40;;;7.10;99.90;;;;;;5005095;28;20453;-82
2023/02/02 04:45:02;;;;;;;446.97;428.87;;;7.10;99.90;;;;;;5005995;28;20882;-83
2023/02/02 04:47:28;;;;;;;429.20;412.90;;;7.30;99.90;;;;;;5007053;28;20505;-83
2023/02/02 04:49:55;;;;;;;431.03;413.87;;;7.20;99.90;;;;;;5006690;28;20464;-83
2023/02/02 04:52:22;;;;;;;469.10;448.53;;;7.20;99.90;;;;;;5005536;28;20446;-81
2023/02/02 04:54:48;;;;;;;516.23;492.73;;;7.20;99.90;;;;;;5006154;28;20485;-82
2023/02/02 04:57:16;;;;;;;459.60;440.33;;;7.00;99.90;;;;;;5005040;28;20485;-81
2023/02/02 04:59:43;;;;;;;457.00;439.67;;;7.00;99.90;;;;;;5005152;28;20548;-82
2023/02/02 05:02:11;;;;;;;464.97;446.77;;;7.10;99.90;;;;;;4987519;28;20468;-82
2023/02/02 05:04:38;;;;;;;432.80;416.30;;;7.10;99.90;;;;;;4987435;28;20832;-82
2023/02/02 05:07:04;;;;;;;412.37;397.27;;;7.10;99.90;;;;;;4988205;28;20465;-83
2023/02/02 05:09:31;;;;;;;418.43;400.83;;;7.10;99.90;;;;;;4994843;28;20481;-83
2023/02/02 05:11:58;;;;;;;425.80;407.77;;;7.20;99.90;;;;;;4994006;28;20450;-82
2023/02/02 05:14:25;;;;;;;404.63;388.20;;;7.20;99.90;;;;;;4992650;28;20447;-82
2023/02/02 05:16:52;;;;;;;438.70;419.60;;;7.30;99.90;;;;;;5009996;28;20522;-82
2023/02/02 05:19:20;;;;;;;443.73;425.00;;;7.30;99.90;;;;;;5010199;28;20482;-82
2023/02/02 05:21:48;;;;;;;435.77;417.90;;;7.30;99.90;;;;;;5007186;28;20493;-82
2023/02/02 05:24:15;;;;;;;456.57;437.77;;;7.20;99.90;;;;;;4988738;28;20949;-81
2023/02/02 05:26:42;;;;;;;408.23;392.20;;;7.20;99.90;;;;;;4988169;28;20459;-82
2023/02/02 05:29:09;;;;;;;397.17;380.57;;;7.20;99.90;;;;;;4986365;28;20467;-82
2023/02/02 05:31:36;;;;;;;372.40;358.10;;;7.20;99.90;;;;;;4985513;28;20462;-81
2023/02/02 05:34:03;;;;;;;384.47;369.37;;;7.30;99.90;;;;;;4984625;28;20451;-82
2023/02/02 05:36:32;;;;;;;418.00;400.73;;;7.20;99.90;;;;;;4999525;28;20450;-82
2023/02/02 05:38:59;;;;;;;464.27;443.57;;;7.20;99.90;;;;;;4989087;28;20932;-82
2023/02/02 05:41:26;;;;;;;393.17;379.07;;;7.10;99.90;;;;;;4990811;28;20486;-82
2023/02/02 05:43:52;;;;;;;483.50;463.90;;;7.20;99.90;;;;;;5006889;28;20450;-82
2023/02/02 05:46:19;;;;;;;506.03;484.50;;;7.10;99.90;;;;;;5004332;28;20453;-82
2023/02/02 05:48:46;;;;;;;525.57;503.37;;;7.10;99.90;;;;;;5002045;28;20476;-82
2023/02/02 05:51:16;;;;;;;472.60;453.80;;;7.00;99.90;;;;;;5000811;28;20917;-82
2023/02/02 05:53:44;;;;;;;521.23;499.97;;;7.00;99.90;;;;;;4985192;28;20498;-81
2023/02/02 05:56:12;;;;;;;554.83;531.03;;;6.90;99.90;;;;;;4986537;28;20462;-82
2023/02/02 05:58:39;;;;;;;515.47;494.43;;;7.00;99.90;;;;;;4993109;28;20486;-81
2023/02/02 06:01:05;;;;;;;521.17;498.87;;;7.00;99.90;;;;;;5000015;28;20518;-82
2023/02/02 06:03:32;;;;;;;410.20;395.77;;;6.90;99.90;;;;;;5006925;28;20459;-82
2023/02/02 06:05:59;;;;;;;424.57;408.90;;;7.00;99.90;;;;;;5009319;28;20480;-82
2023/02/02 06:08:26;;;;;;;416.93;401.67;;;7.00;99.90;;;;;;4990379;28;20482;-82
2023/02/02 06:10:54;;;;;;;383.00;368.57;;;7.00;99.90;;;;;;5001236;28;20461;-82
2023/02/02 06:13:22;;;;;;;554.20;529.90;;;7.10;99.90;;;;;;5002584;28;20430;-82
2023/02/02 06:15:49;;;;;;;534.50;511.83;;;7.00;99.90;;;;;;5006171;28;20474;-82
2023/02/02 06:18:16;;;;;;;502.10;481.87;;;7.10;99.90;;;;;;5006155;28;20484;-82
2023/02/02 06:20:43;;;;;;;535.83;512.43;;;7.00;99.90;;;;;;4996247;28;20450;-81
2023/02/02 06:23:10;;;;;;;580.27;552.53;;;7.00;99.90;;;;;;4986400;28;20833;-82
2023/02/02 06:25:37;;;;;;;608.90;579.03;;;6.90;99.90;;;;;;4987807;28;20459;-82
2023/02/02 06:28:05;;;;;;;593.63;565.53;;;6.90;99.90;;;;;;4986672;28;20497;-82
2023/02/02 06:30:31;;;;;;;534.50;510.80;;;7.00;99.90;;;;;;4989543;28;20561;-81
2023/02/02 06:32:59;;;;;;;559.27;532.97;;;6.90;99.90;;;;;;4994390;28;20451;-81
2023/02/02 06:35:26;;;;;;;598.57;568.97;;;7.00;99.90;;;;;;4987856;28;20450;-82
2023/02/02 06:37:53;;;;;;;586.00;557.40;;;7.00;99.90;;;;;;5003538;28;20478;-81
2023/02/02 06:40:19;;;;;;;607.20;576.53;;;7.00;99.90;;;;;;5004630;28;20541;-82
2023/02/02 06:42:46;;;;;;;584.77;556.07;;;7.00;99.90;;;;;;4996561;28;20515;-82
2023/02/02 06:45:14;;;;;;;546.27;521.20;;;7.00;99.90;;;;;;4991933;28;20455;-82
2023/02/02 06:47:41;;;;;;;549.40;524.33;;;7.00;99.90;;;;;;4997128;28;20847;-82
2023/02/02 06:50:09;;;;;;;572.90;545.57;;;7.00;99.90;;;;;;4994318;28;20460;-82
2023/02/02 06:52:36;;;;;;;550.43;525.93;;;7.00;99.90;;;;;;5000075;28;20457;-82
2023/02/02 06:55:05;;;;;;;544.57;520.30;;;7.00;99.90;;;;;;5002654;28;20457;-82
2023/02/02 06:57:32;;;;;;;530.57;506.83;;;7.00;99.90;;;;;;4988513;28;20478;-82
2023/02/02 06:59:59;;;;;;;541.90;516.83;;;7.00;99.90;;;;;;4991252;28;20526;-82
2023/02/02 07:02:27;;;;;;;581.00;550.93;;;7.00;99.90;;;;;;4990211;28;20453;-81
2023/02/02 07:04:54;;;;;;;629.33;596.03;;;7.00;99.90;;;;;;4985641;28;20526;-83
2023/02/02 07:07:21;;;;;;;613.90;583.60;;;7.00;99.90;;;;;;4982325;28;20451;-83
2023/02/02 07:09:47;;;;;;;632.53;598.83;;;6.90;99.90;;;;;;4982463;28;20474;-83
2023/02/02 07:12:14;;;;;;;629.03;596.10;;;6.90;99.90;;;;;;4985759;28;20459;-82
2023/02/02 07:14:41;;;;;;;598.90;570.50;;;6.90;99.90;;;;;;4981052;28;20471;-83
2023/02/02 07:17:08;;;;;;;590.07;560.50;;;6.90;99.90;;;;;;4981297;28;20461;-83
2023/02/02 07:19:36;;;;;;;598.00;569.20;;;6.90;99.90;;;;;;4981441;28;20488;-83
2023/02/02 07:22:03;;;;;;;574.13;547.53;;;6.90;99.90;;;;;;4981736;28;20455;-82
2023/02/02 07:24:30;;;;;;;625.70;593.83;;;7.00;99.90;;;;;;4998143;28;20461;-82
2023/02/02 07:26:57;;;;;;;658.93;621.13;;;6.90;99.90;;;;;;4997859;28;20834;-83
2023/02/02 07:29:24;;;;;;;648.63;613.00;;;6.90;99.90;;;;;;4988386;28;20498;-83
2023/02/02 07:31:51;;;;;;;641.47;605.50;;;6.90;99.90;;;;;;5002983;28;20454;-82
2023/02/02 07:34:17;;;;;;;637.88;603.78;;;7.00;99.90;;;;;;4995929;28;20471;-80
2023/02/02 07:36:46;;;;;;;632.63;598.23;;;7.00;99.90;;;;;;5002701;28;20195;-82
2023/02/02 07:39:13;;;;;;;616.37;585.70;;;7.00;99.90;;;;;;5002844;28;20482;-83
2023/02/02 07:41:39;;;;;;;582.23;555.13;;;7.00;99.90;;;;;;5002977;28;20534;-82
2023/02/02 07:44:06;;;;;;;613.97;582.20;;;7.10;99.90;;;;;;5002673;28;20473;-83
2023/02/02 07:46:33;;;;;;;612.57;581.77;;;7.10;99.90;;;;;;5002332;28;20450;-82
2023/02/02 07:49:00;;;;;;;600.40;570.17;;;7.00;99.90;;;;;;5002910;28;20480;-83
2023/02/02 07:51:27;;;;;;;628.07;592.43;;;7.10;99.90;;;;;;5003024;28;20837;-83
2023/02/02 07:53:57;;;;;;;615.07;583.37;;;7.00;99.90;;;;;;5001901;28;20462;-83
2023/02/02 07:56:26;;;;;;;633.37;596.27;;;7.10;99.90;;;;;;5002713;28;20481;-83
2023/02/02 07:58:53;;;;;;;610.37;578.67;;;7.10;99.90;;;;;;5002844;28;20482;-83
2023/02/02 08:01:21;;;;;;;592.10;564.03;;;7.10;99.90;;;;;;4995991;28;20466;-82
2023/02/02 08:03:49;;;;;;;612.97;579.13;;;7.20;99.90;;;;;;4982136;28;20482;-82
2023/02/02 08:06:19;;;;;;;593.70;566.33;;;7.10;99.90;;;;;;4981714;28;20462;-83
2023/02/02 08:08:46;;;;;;;581.10;554.50;;;7.20;99.90;;;;;;4981719;28;20474;-82
2023/02/02 08:11:16;;;;;;;582.33;554.57;;;7.20;99.90;;;;;;4982113;28;20474;-83
2023/02/02 08:13:43;;;;;;;604.50;574.23;;;7.20;99.90;;;;;;4982509;28;20448;-82
2023/02/02 08:16:11;;;;;;;606.47;575.63;;;7.10;99.90;;;;;;4981657;28;20455;-83
2023/02/02 08:18:39;;;;;;;607.47;576.73;;;7.20;99.90;;;;;;4981337;28;20989;-83
2023/02/02 08:21:08;;;;;;;602.87;574.17;;;7.20;99.90;;;;;;4980663;28;20454;-82
2023/02/02 08:23:35;;;;;;;624.83;592.83;;;7.10;99.90;;;;;;4981440;28;20459;-81
2023/02/02 08:26:11;;;;;;;616.67;587.77;;;7.10;99.90;;;;;;4981610;28;20458;-82
2023/02/02 08:28:40;;;;;;;656.70;619.50;;;7.10;99.90;;;;;;4982003;28;20470;-82
2023/02/02 08:31:09;;;;;;;650.13;615.33;;;7.10;99.90;;;;;;4981877;28;20490;-82
2023/02/02 08:33:36;;;;;;;636.10;602.07;;;7.20;99.90;;;;;;4980593;28;20463;-81
2023/02/02 08:36:03;;;;;;;591.70;562.53;;;7.20;99.90;;;;;;4981723;28;20465;-82
2023/02/02 08:38:30;;;;;;;622.83;589.87;;;7.30;99.90;;;;;;4984233;28;20493;-82
2023/02/02 08:41:05;;;;;;;615.40;585.53;;;7.20;99.90;;;;;;4984563;28;20453;-82
2023/02/02 08:43:31;;;;;;;574.63;549.07;;;7.20;99.90;;;;;;4985003;28;20480;-82
2023/02/02 08:46:00;;;;;;;554.53;530.27;;;7.30;99.90;;;;;;4985441;28;20455;-82
2023/02/02 08:48:27;;;;;;;562.13;537.07;;;7.30;99.90;;;;;;4984796;28;20471;-82
2023/02/02 08:50:54;;;;;;;569.50;543.30;;;7.30;99.90;;;;;;4985883;28;20459;-82
2023/02/02 08:53:21;;;;;;;524.90;502.80;;;7.30;99.90;;;;;;4986042;28;20459;-82
2023/02/02 08:55:48;;;;;;;485.97;466.17;;;7.40;99.90;;;;;;4985755;28;20447;-82
2023/02/02 08:58:15;;;;;;;503.47;482.87;;;7.50;99.90;;;;;;4985640;28;20974;-82
2023/02/02 09:00:42;;;;;;;508.00;487.07;;;7.50;99.90;;;;;;4986044;28;20949;-82
2023/02/02 09:03:10;;;;;;;516.57;494.47;;;7.50;99.90;;;;;;4985587;28;20459;-82
2023/02/02 09:05:38;;;;;;;498.90;479.00;;;7.50;99.90;;;;;;4985815;28;20455;-82
2023/02/02 09:08:05;;;;;;;529.20;506.57;;;7.50;99.90;;;;;;4985183;28;20475;-81
2023/02/02 09:10:34;;;;;;;512.83;492.17;;;7.50;99.90;;;;;;4985132;28;20513;-82
2023/02/02 09:13:01;;;;;;;404.60;387.73;;;7.40;99.90;;;;;;4985655;28;20462;-81
2023/02/02 09:15:28;;;;;;;435.60;416.17;;;7.30;99.90;;;;;;4986585;28;20455;-82
2023/02/02 09:17:55;;;;;;;457.20;438.23;;;7.40;99.90;;;;;;4984885;28;20486;-82
2023/02/02 09:20:23;;;;;;;489.17;466.33;;;7.30;99.90;;;;;;4985664;28;20506;-82
2023/02/02 09:22:49;;;;;;;461.07;440.67;;;7.30;99.90;;;;;;4985198;28;20458;-81
2023/02/02 09:25:16;;;;;;;483.63;462.93;;;7.30;99.90;;;;;;5005102;28;20450;-82
2023/02/02 09:27:43;;;;;;;472.70;451.87;;;7.50;99.90;;;;;;5004954;28;20481;-81
2023/02/02 09:30:11;;;;;;;520.37;498.37;;;7.50;99.90;;;;;;5004161;28;20960;-81
2023/02/02 09:32:38;;;;;;;596.20;568.53;;;7.30;99.90;;;;;;5004273;28;20458;-81
2023/02/02 09:35:05;;;;;;;628.53;596.47;;;7.30;99.90;;;;;;4993151;28;20458;-81
2023/02/02 09:37:35;;;;;;;639.80;607.53;;;7.20;99.90;;;;;;4986533;28;20467;-81
2023/02/02 09:40:01;;;;;;;676.77;639.37;;;7.20;99.90;;;;;;4986139;28;20474;-81
2023/02/02 09:42:46;;;;;;;661.33;624.50;;;7.30;99.90;;;;;;4985038;28;20490;-80
2023/02/02 09:45:20;;;;;;;506.50;480.53;;;7.20;99.90;;;;;;4985797;28;20458;-81
2023/02/02 09:47:54;;;;;;;564.70;534.30;;;7.20;99.90;;;;;;4984364;28;20470;-80
2023/02/02 09:50:32;;;;;;;579.43;550.03;;;7.20;99.90;;;;;;4984798;28;20457;-81
2023/02/02 09:53:03;;;;;;;630.57;597.17;;;7.10;99.90;;;;;;4985044;28;20466;-81
2023/02/02 09:55:35;;;;;;;563.53;531.83;;;7.10;99.90;;;;;;4986381;28;20455;-81
2023/02/02 09:58:07;;;;;;;663.27;622.90;;;7.20;99.90;;;;;;4986040;28;20474;-81
2023/02/02 10:00:38;;;;;;;548.80;518.93;;;7.20;99.90;;;;;;4985573;28;20479;-81
2023/02/02 10:03:10;;;;;;;592.77;558.00;;;7.30;99.90;;;;;;4983565;28;20814;-80
2023/02/02 10:05:46;;;;;;;550.53;520.23;;;7.30;99.90;;;;;;4981548;28;20451;-80
2023/02/02 10:08:21;;;;;;;650.07;612.97;;;7.40;99.90;;;;;;4982232;28;21009;-81
2023/02/02 10:10:51;;;;;;;643.83;607.97;;;7.40;99.90;;;;;;4980724;28;20454;-80
2023/02/02 10:13:23;;;;;;;671.43;629.50;;;7.40;99.90;;;;;;4980624;28;20463;-82
2023/02/02 10:15:58;;;;;;;666.13;626.23;;;7.40;99.90;;;;;;4981470;28;20459;-82
2023/02/02 10:18:36;;;;;;;677.33;636.27;;;7.30;99.90;;;;;;4981847;28;20498;-81
2023/02/02 10:21:06;;;;;;;676.10;633.60;;;7.40;99.90;;;;;;4980596;28;20453;-81
2023/02/02 10:23:37;;;;;;;653.80;617.53;;;7.50;99.90;;;;;;5000737;28;20450;-81
2023/02/02 10:26:11;;;;;;;663.13;624.87;;;7.50;99.90;;;;;;5000613;28;20450;-82
2023/02/02 10:28:45;;;;;;;676.23;635.03;;;7.50;99.90;;;;;;5000483;28;20473;-81
2023/02/02 10:31:20;;;;;;;676.27;636.80;;;7.60;99.90;;;;;;5002126;28;20975;-82
2023/02/02 10:33:57;;;;;;;683.37;642.40;;;7.60;99.90;;;;;;5002264;28;20453;-82
2023/02/02 10:36:31;;;;;;;657.60;620.60;;;7.70;99.90;;;;;;5001399;28;20449;-82
2023/02/02 10:39:08;;;;;;;664.27;624.57;;;7.70;99.90;;;;;;5000293;28;21000;-82
2023/02/02 10:41:41;;;;;;;645.57;610.60;;;7.80;99.90;;;;;;5000805;28;20549;-83
2023/02/02 10:44:19;;;;;;;630.90;596.00;;;7.80;99.90;;;;;;5000089;28;20439;-82
2023/02/02 10:46:49;;;;;;;634.20;601.30;;;7.90;99.90;;;;;;5000548;28;20461;-82
2023/02/02 10:49:22;;;;;;;636.67;604.27;;;7.90;99.90;;;;;;5000790;28;20465;-82
2023/02/02 10:51:54;;;;;;;646.13;612.10;;;7.90;99.90;;;;;;5000734;28;20465;-82
2023/02/02 10:54:38;;;;;;;646.43;613.33;;;7.90;99.90;;;;;;5000541;28;20515;-82
2023/02/02 10:57:07;;;;;;;646.33;614.03;;;8.00;99.90;;;;;;5001078;28;20496;-82
2023/02/02 10:59:43;;;;;;;628.70;597.07;;;8.00;99.90;;;;;;4999867;28;20853;-82
2023/02/02 11:02:11;;;;;;;643.60;611.97;;;7.90;99.90;;;;;;5000399;28;20926;-82
2023/02/02 11:07:22;;;;;;;620.77;590.80;;;8.00;99.90;;;;;;5000932;28;20424;-82
2023/02/02 11:09:52;;;;;;;635.23;603.60;;;8.00;99.90;;;;;;5000478;28;20453;-82
2023/02/02 11:12:24;;;;;;;622.47;592.78;;;8.10;99.90;;;;;;5000054;28;21013;-83
2023/02/02 11:15:00;;;;;;;636.67;605.23;;;8.20;99.90;;;;;;5001697;28;20183;-84
2023/02/02 11:17:30;;;;;;;627.67;596.13;;;8.20;99.90;;;;;;5002333;28;20851;-84
2023/02/02 11:19:56;;;;;;;599.43;570.33;;;8.20;99.90;;;;;;5000959;28;20478;-83
2023/02/02 11:22:31;;;;;;;563.07;537.07;;;8.30;99.90;;;;;;5000828;28;20450;-83
2023/02/02 11:25:01;;;;;;;544.63;519.13;;;8.30;99.90;;;;;;5001244;28;20488;-83
2023/02/02 11:27:32;;;;;;;535.00;510.50;;;8.40;99.90;;;;;;5001738;28;20446;-84
2023/02/02 11:30:00;;;;;;;542.50;517.87;;;8.40;99.90;;;;;;5001598;28;20458;-83
2023/02/02 11:32:31;;;;;;;450.73;431.93;;;8.40;99.90;;;;;;5000878;28;20457;-83
2023/02/02 11:35:22;;;;;;;463.57;444.40;;;8.40;99.90;;;;;;5000135;28;20438;-83
2023/02/02 11:38:00;;;;;;;388.13;372.63;;;8.50;99.90;;;;;;5000885;28;20561;-82
2023/02/02 11:40:31;;;;;;;360.77;346.37;;;8.40;99.90;;;;;;5001001;28;20482;-83
2023/02/02 11:43:01;;;;;;;395.47;380.77;;;8.60;99.90;;;;;;5000668;28;20544;-82
2023/02/02 11:45:34;;;;;;;437.40;420.33;;;8.70;99.90;;;;;;5000320;28;20945;-83
2023/02/02 11:48:04;;;;;;;294.17;283.40;;;8.70;99.90;;;;;;4999432;28;20561;-82
2023/02/02 11:50:31;;;;;;;402.23;387.60;;;8.80;99.90;;;;;;4999746;28;20460;-83
2023/02/02 11:52:58;;;;;;;341.50;329.10;;;8.90;99.90;;;;;;4998884;28;20454;-82
2023/02/02 11:55:30;;;;;;;307.13;296.73;;;9.00;99.90;;;;;;4999899;28;20461;-83
2023/02/02 11:58:19;;;;;;;304.47;294.03;;;9.00;99.90;;;;;;4998782;28;20485;-82
2023/02/02 12:00:47;;;;;;;389.03;375.53;;;9.10;99.90;;;;;;4999146;28;20485;-82
2023/02/02 12:03:26;;;;;;;322.03;310.90;;;9.10;99.90;;;;;;4998723;28;20458;-83
2023/02/02 12:05:54;;;;;;;154.97;148.43;;;9.10;99.90;;;;;;5000230;28;20462;-83
2023/02/02 12:08:21;;;;;;;116.93;111.43;;;9.30;99.90;;;;;;5000051;28;20484;-83
2023/02/02 12:10:56;;;;;;;150.93;144.60;;;9.40;99.90;;;;;;4999454;28;20462;-82
2023/02/02 12:13:34;;;;;;;74.70;70.77;;;9.60;99.90;;;;;;5002886;28;20460;-82
2023/02/02 12:16:11;;;;;;;147.23;141.27;;;9.50;99.90;;;;;;5002966;28;20437;-82
2023/02/02 12:18:52;;;;;;;142.80;136.40;;;9.60;99.90;;;;;;5002560;28;20483;-83
2023/02/02 12:21:30;;;;;;;46.27;43.03;;;9.70;99.90;;;;;;5002425;28;20482;-83
2023/02/02 12:24:13;;;;;;;64.43;60.70;;;9.50;99.90;;;;;;5001532;28;20826;-81
2023/02/02 12:26:46;;;;;;;47.63;44.43;;;9.40;99.90;;;;;;5002040;28;20972;-81
2023/02/02 12:29:29;;;;;;;41.17;38.27;;;9.20;99.90;;;;;;5002950;28;20858;-83
2023/02/02 12:32:11;;;;;;;59.37;55.30;;;9.30;99.90;;;;;;5001459;28;20449;-82
2023/02/02 12:34:46;;;;;;;38.33;35.33;;;9.20;99.90;;;;;;5002471;28;20458;-83
2023/02/02 12:37:25;;;;;;;40.10;37.10;;;9.10;99.90;;;;;;5002510;28;20457;-82
2023/02/02 12:40:06;;;;;;;25.20;19.23;;;9.10;99.90;;;;;;5002203;28;20477;-82
2023/02/02 12:42:49;;;;;;;29.57;27.43;;;9.00;99.90;;;;;;5001968;28;20462;-82
2023/02/02 12:45:29;;;;;;;35.47;33.20;;;8.90;99.90;;;;;;5005510;28;20814;-82